Time;durP1;ratioP1;P1;durP2;ratioP2;P2;SDS_P1;SDS_P2;PMS_P1;PMS_P2;Temp;Humidity;BMP_temperature;BMP_pressure;BME280_temperature;BME280_humidity;BME280_pressure;Samples;Min_cycle;Max_cycle;Signal;HPM_P1;HPM_P2
2022/04/24 10:43:24;;;;;;;19.77;14.27;;;24.50;43.30;;;;;;5105046;27;20388;-69
2022/04/24 10:45:51;;;;;;;52.42;32.00;;;25.10;42.20;;;;;;5080986;28;20931;-69
2022/04/24 10:48:17;;;;;;;62.63;51.75;;;25.50;42.50;;;;;;5082175;28;20169;-69
2022/04/24 10:50:50;;;;;;;58.30;41.92;;;26.10;40.80;;;;;;5084510;28;20036;-69
2022/04/24 10:53:16;;;;;;;51.38;36.35;;;26.70;40.00;;;;;;5082999;28;20039;-70
2022/04/24 10:55:43;;;;;;;16.88;12.98;;;27.40;37.00;;;;;;5086148;28;20024;-69
2022/04/24 10:58:10;;;;;;;18.88;11.90;;;27.60;35.20;;;;;;5084635;28;20051;-68
2022/04/24 11:00:37;;;;;;;15.52;10.93;;;27.50;35.80;;;;;;5085298;28;20031;-68
2022/04/24 11:03:14;;;;;;;19.88;15.27;;;26.80;36.50;;;;;;5083391;28;20538;-69
2022/04/24 11:05:47;;;;;;;16.33;10.63;;;26.80;37.50;;;;;;5084040;28;20479;-69
2022/04/24 11:08:20;;;;;;;15.20;10.15;;;26.70;37.50;;;;;;5082103;28;20028;-69
2022/04/24 11:10:48;;;;;;;17.40;12.32;;;26.50;37.80;;;;;;5078774;28;20060;-68
2022/04/24 11:13:19;;;;;;;14.55;10.40;;;26.30;38.10;;;;;;5085823;28;20028;-68
2022/04/24 11:15:49;;;;;;;14.70;10.70;;;25.90;37.50;;;;;;5081124;28;20081;-69
2022/04/24 11:18:22;;;;;;;15.73;10.70;;;25.70;38.10;;;;;;5081043;28;20507;-68
2022/04/24 11:21:07;;;;;;;15.45;10.45;;;25.40;38.50;;;;;;5084098;28;20486;-69
2022/04/24 11:23:38;;;;;;;15.27;10.50;;;25.30;39.10;;;;;;5079664;28;20105;-68
2022/04/24 11:26:05;;;;;;;16.45;11.00;;;;;;;;;;5097957;28;20067;-69
2022/04/24 11:28:46;;;;;;;15.77;10.82;;;24.80;39.00;;;;;;5082706;28;20034;-68
2022/04/24 11:31:16;;;;;;;16.58;10.40;;;24.70;40.40;;;;;;5083887;28;20044;-67
2022/04/24 11:33:51;;;;;;;15.30;10.70;;;24.50;41.30;;;;;;5084793;28;20020;-68
2022/04/24 11:36:18;;;;;;;16.58;10.93;;;24.30;41.50;;;;;;5082407;28;20047;-69
2022/04/24 11:38:51;;;;;;;15.68;10.70;;;24.50;42.50;;;;;;5083511;28;20039;-68
2022/04/24 11:41:19;;;;;;;15.45;11.50;;;23.80;42.20;;;;;;5082576;28;20054;-68
2022/04/24 11:43:44;;;;;;;36.42;11.20;;;23.50;43.60;;;;;;5078330;28;20013;-67
2022/04/24 11:51:41;;;;;;;18.20;11.65;;;22.70;49.10;;;;;;5083927;28;20035;-67
2022/04/24 11:54:09;;;;;;;20.27;12.13;;;22.80;50.10;;;;;;5072747;28;20032;-67
2022/04/24 11:56:37;;;;;;;18.27;11.90;;;22.70;52.00;;;;;;5068605;28;20020;-67
2022/04/24 11:59:18;;;;;;;17.52;12.82;;;22.60;53.40;;;;;;5066664;28;20036;-68
2022/04/24 12:01:45;;;;;;;18.25;13.23;;;22.60;55.00;;;;;;5064323;28;20049;-68
2022/04/24 12:04:21;;;;;;;17.73;13.68;;;22.60;53.90;;;;;;5069330;28;20025;-68
2022/04/24 12:06:48;;;;;;;18.88;14.02;;;22.60;55.60;;;;;;5070797;28;20082;-68
2022/04/24 12:09:20;;;;;;;17.92;13.30;;;22.60;55.40;;;;;;5069690;28;20036;-68
2022/04/24 12:11:46;;;;;;;17.30;13.80;;;22.50;55.80;;;;;;5070101;28;20036;-68
2022/04/24 12:14:14;;;;;;;19.92;14.48;;;22.50;56.50;;;;;;5069972;28;20024;-68
2022/04/24 12:16:47;;;;;;;16.83;13.38;;;22.50;56.10;;;;;;5069770;28;20039;-67
2022/04/24 12:19:18;;;;;;;16.73;13.38;;;22.50;55.30;;;;;;5069160;28;20025;-68
2022/04/24 12:21:45;;;;;;;;;;;22.50;54.40;;;;;;5068746;28;20039;-68
2022/04/24 12:24:11;;;;;;;17.65;12.35;;;22.60;54.30;;;;;;5069021;28;19927;-67
2022/04/24 12:26:48;;;;;;;15.63;11.93;;;22.70;54.00;;;;;;5068109;28;20054;-67
2022/04/24 12:29:15;;;;;;;15.70;11.20;;;22.90;53.10;;;;;;5065646;28;20060;-68
2022/04/24 12:31:42;;;;;;;15.15;11.30;;;22.90;53.60;;;;;;5071408;28;20068;-68
2022/04/24 12:34:08;;;;;;;14.15;10.88;;;23.10;50.50;;;;;;5070342;28;20540;-68
2022/04/24 12:36:33;;;;;;;14.90;10.48;;;23.30;49.50;;;;;;5069539;28;20111;-68
2022/04/24 12:39:00;;;;;;;14.15;10.38;;;23.40;50.00;;;;;;5069285;28;20029;-68
2022/04/24 12:41:29;;;;;;;12.98;10.68;;;23.90;48.10;;;;;;5069476;28;20127;-68
2022/04/24 12:43:58;;;;;;;16.00;11.38;;;25.10;46.10;;;;;;5069717;28;20067;-68
2022/04/24 12:46:24;;;;;;;14.40;10.63;;;25.70;45.30;;;;;;5067926;28;20048;-68
2022/04/24 12:48:52;;;;;;;16.63;12.00;;;25.00;44.90;;;;;;5065793;28;20020;-67
2022/04/24 12:51:21;;;;;;;21.38;14.30;;;24.70;45.70;;;;;;5068504;28;20037;-67
2022/04/24 12:53:48;;;;;;;20.75;14.25;;;24.20;47.20;;;;;;5064658;28;20083;-67
2022/04/24 12:56:14;;;;;;;20.75;14.45;;;23.40;48.30;;;;;;5066509;28;20519;-67
2022/04/24 12:58:40;;;;;;;24.88;15.57;;;23.40;49.20;;;;;;5068006;28;20029;-67
2022/04/24 13:01:07;;;;;;;20.02;14.70;;;23.10;50.30;;;;;;5069912;28;20373;-67
2022/04/24 13:03:34;;;;;;;21.48;14.90;;;22.70;50.80;;;;;;5069051;28;20028;-66
2022/04/24 13:06:00;;;;;;;20.77;15.25;;;22.70;52.00;;;;;;5067080;28;20017;-67
2022/04/24 13:08:26;;;;;;;20.55;14.40;;;22.50;52.30;;;;;;5069007;28;20033;-67
2022/04/24 13:10:52;;;;;;;19.27;15.55;;;22.50;52.90;;;;;;5068561;28;20029;-67
2022/04/24 13:13:18;;;;;;;22.20;15.88;;;22.50;52.20;;;;;;5068076;28;20051;-69
2022/04/24 13:15:43;;;;;;;22.73;15.50;;;22.20;53.20;;;;;;5059881;28;20506;-68
2022/04/24 13:18:09;;;;;;;19.05;15.25;;;22.20;54.40;;;;;;5064367;28;20480;-68
2022/04/24 13:20:42;;;;;;;21.80;15.65;;;21.90;54.10;;;;;;5064383;28;20031;-68
2022/04/24 13:23:10;;;;;;;21.45;16.13;;;21.70;54.90;;;;;;5068856;28;20085;-68
2022/04/24 13:25:38;;;;;;;23.38;16.08;;;21.70;55.90;;;;;;5067284;28;20081;-67
2022/04/24 13:28:05;;;;;;;21.20;14.98;;;21.20;55.80;;;;;;5066319;28;20024;-66
2022/04/24 13:30:32;;;;;;;20.25;14.82;;;21.40;56.50;;;;;;5064726;28;20020;-67
2022/04/24 13:32:58;;;;;;;20.95;15.23;;;21.20;56.60;;;;;;5066278;28;20086;-67
2022/04/24 13:35:25;;;;;;;22.33;15.55;;;21.00;56.10;;;;;;5061317;28;20067;-67
2022/04/24 13:40:35;;;;;;;20.52;14.73;;;20.90;55.80;;;;;;5067830;28;20032;-67
2022/04/24 13:43:02;;;;;;;20.15;14.07;;;21.00;56.50;;;;;;5066521;28;20045;-68
2022/04/24 13:45:30;;;;;;;18.70;14.20;;;21.10;55.60;;;;;;5064731;28;20521;-67
2022/04/24 13:47:56;;;;;;;20.70;14.13;;;21.20;55.50;;;;;;5065657;28;20024;-68
2022/04/24 13:50:22;;;;;;;19.00;13.40;;;21.20;55.50;;;;;;5061814;28;20033;-67
2022/04/24 13:52:48;;;;;;;18.50;12.77;;;21.20;55.30;;;;;;5065709;28;20032;-67
2022/04/24 13:55:15;;;;;;;15.98;12.52;;;21.20;53.40;;;;;;5064131;28;20129;-68
2022/04/24 13:57:42;;;;;;;17.90;12.32;;;21.40;54.30;;;;;;5067051;28;20028;-68
2022/04/24 14:00:10;;;;;;;17.02;11.98;;;21.00;54.40;;;;;;5068531;28;20376;-68
2022/04/24 14:02:40;;;;;;;16.15;12.43;;;21.00;56.20;;;;;;5068636;28;20440;-67
2022/04/24 14:05:07;;;;;;;17.95;12.52;;;21.00;55.80;;;;;;5067995;28;20033;-67
2022/04/24 14:07:34;;;;;;;17.33;12.48;;;20.80;55.90;;;;;;5069087;28;20062;-67
2022/04/24 14:10:00;;;;;;;17.60;11.75;;;20.80;56.40;;;;;;5068257;28;20021;-67
2022/04/24 14:12:26;;;;;;;14.20;11.38;;;20.80;57.40;;;;;;5067802;28;20032;-67
2022/04/24 14:14:52;;;;;;;15.30;11.13;;;20.80;56.10;;;;;;5068478;28;20051;-67
2022/04/24 14:17:18;;;;;;;17.95;11.40;;;20.80;56.60;;;;;;5068099;28;20399;-69
2022/04/24 14:19:44;;;;;;;17.50;11.63;;;20.80;56.00;;;;;;5068323;28;20029;-68
2022/04/24 14:22:10;;;;;;;16.88;11.88;;;21.10;55.60;;;;;;5066438;28;20044;-68
2022/04/24 14:24:36;;;;;;;16.40;12.20;;;21.00;56.20;;;;;;5064704;28;20058;-68
2022/04/24 14:27:02;;;;;;;17.20;11.82;;;21.20;55.00;;;;;;5067418;28;20568;-68
2022/04/24 14:29:28;;;;;;;16.08;12.38;;;21.30;55.50;;;;;;5067926;28;20017;-68
2022/04/24 14:31:55;;;;;;;16.17;12.25;;;21.30;54.90;;;;;;5068505;28;20037;-68
2022/04/24 14:34:24;;;;;;;15.25;11.75;;;21.40;53.10;;;;;;5068566;28;20024;-68
2022/04/24 14:36:51;;;;;;;17.17;12.38;;;21.40;53.80;;;;;;5062490;28;20177;-68
2022/04/24 14:39:17;;;;;;;15.13;12.20;;;21.50;53.30;;;;;;5067856;28;20032;-68
2022/04/24 14:41:43;;;;;;;16.75;12.30;;;21.40;53.30;;;;;;5067670;28;20117;-68
2022/04/24 14:44:10;;;;;;;16.08;12.10;;;21.60;52.50;;;;;;5067399;28;20202;-68
2022/04/24 14:57:34;;;;;;;17.58;13.10;;;21.10;53.70;;;;;;5068037;28;20102;-68
2022/04/24 15:00:00;;;;;;;19.60;12.73;;;21.00;53.70;;;;;;5067899;28;20020;-68
2022/04/24 15:02:26;;;;;;;17.17;12.73;;;20.80;53.50;;;;;;5067441;28;20063;-68
2022/04/24 15:04:52;;;;;;;16.52;13.23;;;20.10;54.90;;;;;;5067994;28;20502;-68
2022/04/24 15:07:18;;;;;;;17.73;12.90;;;20.70;55.90;;;;;;5068776;28;20051;-68
2022/04/24 15:09:44;;;;;;;20.77;14.15;;;20.60;55.50;;;;;;5067831;28;20035;-68
2022/04/24 15:12:11;;;;;;;24.55;15.85;;;20.80;56.50;;;;;;5067370;28;20028;-68
2022/04/24 15:14:37;;;;;;;29.67;17.73;;;20.70;56.80;;;;;;5067708;28;20025;-68
2022/04/24 15:17:04;;;;;;;27.58;20.63;;;20.80;57.60;;;;;;5067581;28;20040;-68
2022/04/24 15:19:30;;;;;;;22.25;16.17;;;20.40;56.70;;;;;;5068311;28;20479;-68
2022/04/24 15:21:56;;;;;;;19.88;14.48;;;20.80;56.70;;;;;;5067771;28;20059;-68
2022/04/24 15:24:22;;;;;;;18.58;13.68;;;20.90;57.40;;;;;;5067221;28;20407;-68
2022/04/24 15:26:49;;;;;;;19.77;13.00;;;20.90;57.50;;;;;;5067570;28;20054;-68
2022/04/24 15:29:16;;;;;;;19.13;13.23;;;21.00;56.10;;;;;;5066614;28;20044;-68
2022/04/24 15:31:43;;;;;;;17.42;12.68;;;20.70;56.20;;;;;;5072401;28;20064;-68
2022/04/24 15:34:10;;;;;;;19.52;13.80;;;20.90;56.10;;;;;;5071473;28;20538;-68
2022/04/24 15:36:36;;;;;;;19.95;14.20;;;21.00;57.10;;;;;;5066105;28;20142;-68
2022/04/24 15:39:03;;;;;;;20.33;14.00;;;21.20;57.10;;;;;;5071464;28;20054;-68
2022/04/24 15:41:31;;;;;;;18.48;12.93;;;20.90;56.40;;;;;;5071007;28;20487;-68
2022/04/24 15:43:56;;;;;;;17.58;13.05;;;20.90;56.30;;;;;;5071010;28;20034;-68
2022/04/24 15:46:22;;;;;;;22.48;13.98;;;21.00;57.10;;;;;;5071696;28;20028;-68
2022/04/24 15:48:48;;;;;;;18.38;12.80;;;20.90;57.70;;;;;;5071066;28;20068;-68
2022/04/24 15:51:14;;;;;;;18.08;13.35;;;20.90;56.30;;;;;;5070873;28;20036;-68
2022/04/24 15:53:40;;;;;;;19.30;14.35;;;21.20;57.10;;;;;;5070870;28;20028;-68
2022/04/24 15:56:09;;;;;;;20.00;13.77;;;20.90;56.90;;;;;;5071118;28;20029;-68
2022/04/24 15:58:38;;;;;;;21.20;14.93;;;20.90;57.60;;;;;;5071976;28;20036;-68
2022/04/24 16:01:05;;;;;;;23.10;15.02;;;21.10;56.40;;;;;;5070473;28;20039;-68
2022/04/24 16:03:31;;;;;;;18.88;14.25;;;20.90;56.20;;;;;;5070026;28;20541;-68
2022/04/24 16:05:58;;;;;;;24.42;14.88;;;20.90;56.10;;;;;;5070802;28;20028;-68
2022/04/24 16:08:27;;;;;;;20.90;14.90;;;20.80;56.40;;;;;;5070537;28;20032;-68
2022/04/24 16:10:53;;;;;;;21.95;15.30;;;20.50;57.10;;;;;;5070728;28;20029;-68
2022/04/24 16:13:20;;;;;;;22.20;15.32;;;20.80;56.70;;;;;;5071058;28;20024;-68
2022/04/24 16:15:46;;;;;;;21.58;15.48;;;20.80;57.40;;;;;;5069900;28;20059;-68
2022/04/24 16:18:14;;;;;;;21.25;15.10;;;20.90;57.10;;;;;;5067912;28;20105;-68
2022/04/24 16:20:41;;;;;;;22.40;15.90;;;21.00;57.10;;;;;;5083911;28;20524;-67
2022/04/24 16:23:08;;;;;;;22.20;15.48;;;;;;;;;;5068769;28;20036;-68
2022/04/24 16:25:35;;;;;;;24.08;15.98;;;20.80;56.60;;;;;;5070708;28;20029;-70
2022/04/24 16:28:01;;;;;;;23.75;15.90;;;20.90;56.90;;;;;;5067813;28;20028;-69
2022/04/24 16:30:27;;;;;;;26.77;17.92;;;21.00;57.10;;;;;;5068325;28;20045;-70
2022/04/24 16:32:53;;;;;;;29.85;20.00;;;20.80;57.60;;;;;;5068761;28;20077;-70
2022/04/24 16:35:19;;;;;;;28.05;20.83;;;20.90;57.50;;;;;;5069051;28;20033;-69
2022/04/24 16:37:48;;;;;;;27.52;20.17;;;20.70;58.00;;;;;;5069983;28;20058;-69
2022/04/24 16:40:14;;;;;;;28.70;19.38;;;20.70;57.80;;;;;;5068605;28;20097;-69
2022/04/24 16:42:42;;;;;;;30.05;20.23;;;20.70;58.40;;;;;;5068847;28;20499;-69
2022/04/24 16:45:09;;;;;;;30.00;20.95;;;20.50;59.40;;;;;;5067541;28;20021;-69
2022/04/24 16:47:38;;;;;;;31.05;22.10;;;20.60;60.20;;;;;;5068081;28;20032;-69
2022/04/24 16:50:06;;;;;;;28.90;20.45;;;20.60;59.60;;;;;;5069885;28;20031;-69
2022/04/24 17:00:33;;;;;;;33.90;22.45;;;20.70;61.20;;;;;;5069602;28;20031;-69
2022/04/24 17:03:05;;;;;;;32.03;22.33;;;19.50;60.50;;;;;;5069282;28;20055;-69
2022/04/24 17:05:33;;;;;;;32.45;22.27;;;19.80;61.10;;;;;;5067788;28;20029;-69
2022/04/24 17:08:00;;;;;;;33.10;23.52;;;20.30;61.80;;;;;;5069668;28;20140;-69
2022/04/24 17:10:30;;;;;;;31.38;23.27;;;20.30;62.00;;;;;;5070486;28;20032;-69
2022/04/24 17:12:56;;;;;;;35.72;23.30;;;20.20;62.30;;;;;;5068012;28;20043;-69
2022/04/24 17:15:23;;;;;;;33.30;22.55;;;19.70;62.20;;;;;;5067716;28;20083;-69
2022/04/24 17:17:50;;;;;;;34.38;23.40;;;20.30;62.80;;;;;;5068432;28;20068;-69
2022/04/24 17:20:18;;;;;;;35.42;23.83;;;20.20;62.70;;;;;;5071944;28;20032;-68
2022/04/24 17:22:46;;;;;;;35.35;23.42;;;20.20;62.70;;;;;;5068032;28;20036;-73
2022/04/24 17:25:12;;;;;;;37.00;24.05;;;;;;;;;;5082824;28;20046;-70
2022/04/24 17:27:38;;;;;;;38.50;24.00;;;;;;;;;;5071405;28;20073;-70
2022/04/24 17:30:06;;;;;;;36.30;24.05;;;20.10;63.80;;;;;;5055682;28;20020;-69
2022/04/24 17:32:32;;;;;;;33.50;23.25;;;;;;;;;;5068516;28;20029;-68
2022/04/24 17:34:59;;;;;;;36.58;22.80;;;;;;;;;;5068534;28;20028;-68
2022/04/24 17:37:26;;;;;;;32.88;23.25;;;19.90;64.70;;;;;;5070221;28;20017;-67
2022/04/24 17:39:51;;;;;;;32.97;22.60;;;20.50;65.10;;;;;;5067809;28;20496;-69
2022/04/24 17:42:18;;;;;;;32.80;23.83;;;20.00;64.60;;;;;;5068022;28;20144;-68
2022/04/24 17:44:44;;;;;;;32.00;23.02;;;20.00;64.70;;;;;;5067533;28;20033;-68
2022/04/24 17:47:10;;;;;;;35.22;23.10;;;20.00;65.70;;;;;;5068486;28;20088;-68
2022/04/24 17:49:36;;;;;;;35.53;23.20;;;20.00;65.70;;;;;;5068139;28;20024;-68
2022/04/24 17:52:09;;;;;;;31.80;23.55;;;20.00;65.90;;;;;;5067430;28;20111;-68
2022/04/24 17:54:38;;;;;;;33.67;23.45;;;20.00;66.00;;;;;;5064368;28;20050;-68
2022/04/24 17:57:06;;;;;;;34.45;23.52;;;18.70;65.10;;;;;;5065629;28;20039;-68
2022/04/24 17:59:34;;;;;;;37.08;23.73;;;20.80;66.30;;;;;;5068317;28;20029;-68
2022/04/24 18:01:59;;;;;;;36.53;23.92;;;19.10;65.40;;;;;;5067842;28;20040;-68
2022/04/24 18:04:26;;;;;;;38.55;23.50;;;20.30;66.30;;;;;;5069422;28;20028;-68
2022/04/24 18:06:52;;;;;;;31.33;23.42;;;20.00;66.20;;;;;;5065966;28;20521;-67
2022/04/24 18:09:18;;;;;;;37.45;26.83;;;19.50;66.20;;;;;;5066804;28;20392;-65
2022/04/24 18:11:45;;;;;;;42.08;29.13;;;19.40;66.70;;;;;;5066543;28;20035;-68
2022/04/24 18:14:14;;;;;;;34.92;24.50;;;19.80;66.80;;;;;;5062667;28;20082;-68
2022/04/24 18:16:43;;;;;;;33.65;23.42;;;19.80;68.00;;;;;;5065194;28;20119;-68
2022/04/24 18:19:09;;;;;;;38.38;23.23;;;19.70;68.20;;;;;;5066969;28;20038;-68
2022/04/24 18:21:36;;;;;;;37.40;24.52;;;19.60;68.20;;;;;;5064186;28;20025;-66
2022/04/24 18:24:01;;;;;;;37.38;25.17;;;19.20;68.10;;;;;;5066372;28;20686;-66
2022/04/24 18:26:28;;;;;;;35.60;24.85;;;19.70;68.60;;;;;;5067906;28;20067;-67
2022/04/24 18:28:54;;;;;;;42.33;27.50;;;19.60;69.20;;;;;;5060765;28;20064;-66
2022/04/24 18:31:20;;;;;;;41.70;28.17;;;19.50;68.50;;;;;;5068028;28;20052;-67
2022/04/24 18:33:46;;;;;;;37.83;25.33;;;19.50;68.60;;;;;;5066922;28;20062;-66
2022/04/24 18:38:57;;;;;;;39.17;25.77;;;19.60;69.30;;;;;;5067182;28;20097;-66
2022/04/24 18:41:23;;;;;;;35.70;24.02;;;19.40;69.90;;;;;;5066016;28;20484;-66
2022/04/24 18:43:49;;;;;;;36.80;24.17;;;19.30;69.50;;;;;;5062590;28;20059;-66
2022/04/24 18:46:15;;;;;;;37.67;24.45;;;19.40;70.40;;;;;;5068315;28;20055;-66
2022/04/24 18:48:42;;;;;;;37.38;24.92;;;19.40;70.00;;;;;;5065262;28;20040;-66
2022/04/24 18:51:08;;;;;;;39.20;25.17;;;19.30;70.00;;;;;;5066396;28;20036;-66
2022/04/24 18:53:34;;;;;;;39.92;25.25;;;19.30;71.00;;;;;;5064221;28;20070;-66
2022/04/24 18:56:01;;;;;;;41.85;25.35;;;19.30;71.20;;;;;;5066139;28;20060;-67
2022/04/24 18:58:27;;;;;;;40.83;25.25;;;19.30;71.50;;;;;;5062325;28;20025;-66
2022/04/24 19:00:54;;;;;;;36.28;24.55;;;19.20;70.60;;;;;;5063672;28;20033;-66
2022/04/24 19:03:20;;;;;;;39.97;24.75;;;19.20;71.30;;;;;;5067885;28;20045;-66
2022/04/24 19:08:32;;;;;;;41.78;25.25;;;19.20;71.30;;;;;;5067523;28;20129;-67
2022/04/24 19:13:43;;;;;;;35.28;24.73;;;19.20;71.60;;;;;;5067708;28;20081;-66
2022/04/24 19:16:12;;;;;;;38.65;25.35;;;19.10;71.30;;;;;;5071073;28;20085;-67
2022/04/24 19:18:39;;;;;;;37.00;24.52;;;19.10;72.40;;;;;;5069953;28;20044;-67
2022/04/24 19:21:07;;;;;;;37.42;25.25;;;19.10;71.90;;;;;;5069737;28;20028;-67
2022/04/24 19:23:34;;;;;;;35.88;24.60;;;19.10;72.10;;;;;;5070638;28;20419;-66
2022/04/24 19:26:03;;;;;;;33.95;23.85;;;19.00;73.00;;;;;;5068519;28;20491;-66
2022/04/24 19:28:30;;;;;;;34.40;24.27;;;19.00;72.40;;;;;;5070270;28;20036;-66
2022/04/24 19:30:58;;;;;;;40.65;24.95;;;19.00;73.30;;;;;;5067312;28;20031;-66
2022/04/24 19:33:25;;;;;;;39.75;25.05;;;18.40;72.40;;;;;;5069794;28;20107;-66
2022/04/24 19:35:52;;;;;;;41.17;24.95;;;18.90;73.50;;;;;;5066989;28;20030;-66
2022/04/24 19:38:18;;;;;;;36.03;23.67;;;18.90;73.50;;;;;;5058234;28;20044;-66
2022/04/24 19:40:44;;;;;;;35.42;23.67;;;18.80;73.10;;;;;;5069720;28;20101;-66
2022/04/24 19:43:14;;;;;;;34.50;23.02;;;18.90;74.30;;;;;;5071187;28;20049;-66
2022/04/24 19:45:41;;;;;;;34.95;23.60;;;18.80;74.70;;;;;;5067444;28;20025;-66
2022/04/24 19:50:52;;;;;;;40.22;24.88;;;18.80;75.60;;;;;;5060718;28;20818;-66
2022/04/24 19:53:18;;;;;;;40.33;25.30;;;18.70;75.90;;;;;;5068075;28;20024;-66
2022/04/24 19:55:45;;;;;;;36.35;24.33;;;18.70;76.20;;;;;;5071503;28;20408;-66
2022/04/24 19:58:11;;;;;;;38.03;24.90;;;18.60;75.60;;;;;;5071106;28;20244;-65
2022/04/24 20:00:38;;;;;;;33.00;22.70;;;18.60;76.40;;;;;;5070265;28;20575;-66
2022/04/24 20:03:08;;;;;;;30.13;20.20;;;18.60;74.60;;;;;;5070590;28;20044;-66
2022/04/24 20:05:36;;;;;;;31.15;19.25;;;18.60;74.90;;;;;;5067157;28;20032;-65
2022/04/24 20:08:03;;;;;;;30.00;18.42;;;18.50;73.80;;;;;;5067940;28;20047;-65
2022/04/24 20:10:28;;;;;;;25.40;17.83;;;18.30;70.40;;;;;;5068599;28;20403;-65
2022/04/24 20:12:54;;;;;;;22.98;14.27;;;18.40;71.10;;;;;;5068899;28;20028;-65
2022/04/24 20:15:20;;;;;;;22.17;14.75;;;18.30;65.40;;;;;;5070020;28;20479;-65
2022/04/24 20:17:46;;;;;;;19.90;14.40;;;18.30;66.10;;;;;;5062726;28;20478;-65
2022/04/24 20:20:11;;;;;;;18.95;13.95;;;18.30;65.80;;;;;;5069840;28;20025;-66
2022/04/24 20:22:37;;;;;;;21.98;14.77;;;18.30;65.30;;;;;;5071321;28;20039;-65
2022/04/24 20:25:04;;;;;;;21.95;13.98;;;18.20;64.80;;;;;;5069485;28;20039;-65
2022/04/24 20:27:30;;;;;;;20.17;14.30;;;18.30;62.50;;;;;;5069580;28;20025;-65
2022/04/24 20:29:58;;;;;;;19.70;14.02;;;18.20;62.60;;;;;;5067555;28;20036;-65
2022/04/24 20:32:24;;;;;;;28.17;16.17;;;18.10;63.20;;;;;;5069601;28;20094;-65
2022/04/24 20:34:50;;;;;;;22.38;15.73;;;18.20;63.00;;;;;;5068985;28;20103;-65
2022/04/24 20:37:15;;;;;;;26.40;17.58;;;18.30;65.60;;;;;;5066155;28;20309;-66
2022/04/24 20:39:45;;;;;;;26.20;16.90;;;18.10;66.40;;;;;;5066486;28;20020;-66
2022/04/24 20:42:12;;;;;;;26.52;16.70;;;18.10;66.40;;;;;;5068543;28;20135;-66
2022/04/24 20:44:39;;;;;;;23.27;16.85;;;18.00;67.20;;;;;;5062572;28;20493;-66
2022/04/24 20:47:08;;;;;;;28.27;19.23;;;18.30;67.30;;;;;;5066941;28;20032;-66
2022/04/24 20:49:34;;;;;;;26.38;18.55;;;18.00;67.10;;;;;;5070338;28;20032;-66
2022/04/24 20:52:00;;;;;;;25.08;15.77;;;17.90;66.70;;;;;;5069936;28;20032;-66
2022/04/24 20:54:26;;;;;;;26.20;16.33;;;17.80;67.60;;;;;;5069668;28;20032;-66
2022/04/24 20:56:52;;;;;;;21.77;16.67;;;18.40;72.90;;;;;;5065435;28;20096;-65
2022/04/24 20:59:17;;;;;;;21.25;15.52;;;17.00;73.80;;;;;;5067766;28;20036;-65
2022/04/24 21:01:44;;;;;;;22.92;16.10;;;18.20;75.80;;;;;;5067804;28;20120;-65
2022/04/24 21:04:10;;;;;;;25.42;15.75;;;18.10;76.80;;;;;;5069376;28;20028;-65
2022/04/24 21:06:36;;;;;;;21.38;16.08;;;17.60;78.00;;;;;;5067458;28;20078;-66
2022/04/24 21:09:03;;;;;;;21.35;16.58;;;18.00;79.20;;;;;;5067779;28;20037;-66
2022/04/24 21:11:29;;;;;;;23.70;16.55;;;16.20;78.50;;;;;;5067872;28;20055;-65
2022/04/24 21:13:55;;;;;;;25.80;16.70;;;;;;;;;;5069152;28;20553;-66
2022/04/24 21:16:20;;;;;;;21.38;15.73;;;17.50;79.20;;;;;;5070238;28;20024;-66
2022/04/24 21:18:46;;;;;;;23.75;16.08;;;17.50;80.80;;;;;;5068074;28;20025;-65
2022/04/24 21:21:12;;;;;;;23.08;16.00;;;17.40;80.50;;;;;;5067199;28;20028;-66
2022/04/24 21:23:38;;;;;;;22.17;16.40;;;17.40;80.50;;;;;;5068687;28;20111;-65
2022/04/24 21:26:04;;;;;;;22.45;16.17;;;17.10;79.70;;;;;;5066220;28;20032;-66
2022/04/24 21:28:32;;;;;;;25.45;17.02;;;;;;;;;;5070518;28;20017;-66
2022/04/24 21:30:59;;;;;;;21.23;15.77;;;16.70;77.40;;;;;;5068446;28;20041;-65
2022/04/24 21:33:25;;;;;;;23.52;16.02;;;17.10;77.70;;;;;;5067217;28;20037;-66
2022/04/24 21:35:51;;;;;;;22.38;15.82;;;16.10;76.70;;;;;;5067520;28;20028;-66
2022/04/24 21:38:17;;;;;;;22.92;16.02;;;16.90;77.80;;;;;;5067959;28;20032;-66
2022/04/24 21:40:46;;;;;;;20.50;15.88;;;16.70;76.90;;;;;;5068463;28;20314;-65
2022/04/24 21:43:16;;;;;;;22.13;15.90;;;16.90;76.70;;;;;;5068275;28;20059;-65
2022/04/24 21:45:42;;;;;;;21.75;15.60;;;16.90;76.50;;;;;;5065939;28;20272;-65
2022/04/24 21:48:08;;;;;;;23.52;15.40;;;17.00;76.50;;;;;;5067603;28;20495;-66
2022/04/24 21:50:34;;;;;;;21.55;16.08;;;16.90;76.40;;;;;;5067846;28;20028;-66
2022/04/24 21:53:00;;;;;;;19.88;15.63;;;17.00;76.50;;;;;;5066798;28;20078;-65
2022/04/24 21:55:26;;;;;;;23.38;16.30;;;16.90;77.30;;;;;;5069013;28;20119;-65
2022/04/24 21:57:55;;;;;;;21.13;15.43;;;17.00;77.50;;;;;;5067403;28;20120;-65
2022/04/24 22:00:50;;;;;;;21.55;15.63;;;16.90;76.60;;;;;;5064567;28;20024;-66
2022/04/24 22:06:00;;;;;;;22.55;15.32;;;17.00;77.50;;;;;;5067091;28;20035;-65
2022/04/24 22:08:27;;;;;;;19.08;15.40;;;16.90;76.60;;;;;;5068044;28;20025;-65
2022/04/24 22:10:53;;;;;;;20.05;14.63;;;16.90;76.70;;;;;;5066310;28;20013;-65
2022/04/24 22:13:20;;;;;;;19.00;14.75;;;16.90;76.80;;;;;;5068632;28;20089;-65
2022/04/24 22:15:46;;;;;;;23.13;16.92;;;16.90;77.60;;;;;;5064309;28;20055;-65
2022/04/24 22:18:11;;;;;;;21.67;15.57;;;16.90;76.90;;;;;;5059609;28;20052;-65
2022/04/24 22:20:37;;;;;;;21.45;15.98;;;16.80;76.80;;;;;;5068229;28;20020;-65
2022/04/24 22:25:48;;;;;;;24.80;16.40;;;16.70;77.50;;;;;;5065671;28;20454;-66
2022/04/24 22:28:13;;;;;;;22.10;16.50;;;16.70;77.60;;;;;;5068742;28;20036;-66
2022/04/24 22:30:39;;;;;;;20.50;15.68;;;16.70;77.60;;;;;;5067661;28;20487;-66
2022/04/24 22:33:06;;;;;;;20.48;15.50;;;16.60;77.60;;;;;;5067654;28;20024;-66
2022/04/24 22:35:36;;;;;;;22.20;16.00;;;16.60;77.80;;;;;;5067896;28;20025;-66
2022/04/24 22:38:03;;;;;;;21.45;16.13;;;16.60;78.10;;;;;;5067979;28;20094;-66
2022/04/24 22:40:29;;;;;;;20.98;15.95;;;16.60;78.20;;;;;;5069193;28;20407;-66
2022/04/24 22:42:55;;;;;;;20.15;15.85;;;16.60;78.30;;;;;;5067310;28;20049;-66
2022/04/24 22:45:21;;;;;;;22.42;16.23;;;16.60;78.50;;;;;;5067886;28;20039;-66
2022/04/24 22:47:46;;;;;;;20.10;14.77;;;16.60;78.60;;;;;;5067854;28;20025;-65
2022/04/24 22:50:13;;;;;;;19.58;14.90;;;16.50;78.10;;;;;;5052129;28;20469;-65
2022/04/24 22:52:39;;;;;;;21.50;15.23;;;16.50;77.50;;;;;;5069032;28;20372;-66
2022/04/24 22:55:06;;;;;;;22.35;14.93;;;16.50;77.20;;;;;;5063973;28;20487;-66
2022/04/24 22:57:31;;;;;;;22.85;15.30;;;16.40;76.60;;;;;;5067591;28;20648;-66
2022/04/24 22:59:58;;;;;;;20.88;14.98;;;16.40;76.40;;;;;;5067941;28;20028;-66
2022/04/24 23:02:25;;;;;;;19.73;14.98;;;16.40;76.10;;;;;;5067570;28;20039;-65
2022/04/24 23:04:50;;;;;;;23.85;14.88;;;16.40;75.80;;;;;;5068064;28;20024;-65
2022/04/24 23:07:16;;;;;;;21.75;14.25;;;16.40;75.60;;;;;;5068775;28;20025;-65
2022/04/24 23:09:43;;;;;;;20.73;14.02;;;16.30;75.30;;;;;;5067994;28;20395;-65
2022/04/24 23:12:09;;;;;;;22.90;14.65;;;16.30;74.30;;;;;;5067884;28;20132;-65
2022/04/24 23:14:35;;;;;;;19.70;14.38;;;16.30;75.00;;;;;;5067682;28;20017;-65
2022/04/24 23:17:03;;;;;;;22.60;14.48;;;16.30;74.70;;;;;;5065322;28;20150;-65
2022/04/24 23:19:28;;;;;;;20.88;14.02;;;16.20;73.40;;;;;;5067903;28;20032;-66
2022/04/24 23:21:59;;;;;;;19.63;14.27;;;16.20;73.30;;;;;;5065938;28;20040;-66
2022/04/24 23:24:33;;;;;;;21.05;14.68;;;16.10;74.00;;;;;;5065955;28;20487;-66
2022/04/24 23:27:01;;;;;;;18.85;14.30;;;16.10;74.00;;;;;;5066650;28;20032;-65
2022/04/24 23:29:27;;;;;;;25.20;15.60;;;16.10;72.90;;;;;;5067440;28;20067;-65
2022/04/24 23:31:53;;;;;;;23.02;14.55;;;16.10;72.60;;;;;;5066902;28;20067;-65
2022/04/24 23:34:22;;;;;;;23.02;14.55;;;16.10;73.40;;;;;;5067320;28;20044;-65
2022/04/24 23:36:48;;;;;;;22.25;14.52;;;16.10;73.30;;;;;;5065979;28;20060;-65
2022/04/24 23:39:15;;;;;;;24.25;15.38;;;16.10;73.20;;;;;;5065755;28;20028;-65
2022/04/24 23:41:42;;;;;;;23.70;14.95;;;16.10;73.00;;;;;;5066097;28;20499;-65
2022/04/24 23:44:10;;;;;;;21.08;14.45;;;16.00;71.90;;;;;;5065897;28;20174;-66
2022/04/24 23:46:36;;;;;;;20.25;14.55;;;16.00;72.00;;;;;;5067750;28;20495;-66
2022/04/24 23:49:05;;;;;;;21.48;14.52;;;16.00;72.90;;;;;;5062947;28;20040;-66
2022/04/24 23:51:31;;;;;;;20.90;14.93;;;16.00;72.30;;;;;;5070408;28;20028;-65
2022/04/24 23:53:57;;;;;;;22.45;14.75;;;16.00;72.30;;;;;;5069297;28;20036;-66
2022/04/24 23:56:23;;;;;;;21.33;14.40;;;15.90;73.10;;;;;;5069475;28;20070;-65